createdAt,value
2022-12-05T00:01:27.006Z,20.08
2022-12-05T00:04:14.015Z,20.15
2022-12-05T00:06:59.178Z,21.05
2022-12-05T00:09:44.695Z,21.58
2022-12-05T00:12:29.695Z,20.98
2022-12-05T00:15:15.130Z,21.42
2022-12-05T00:18:00.484Z,20.70
2022-12-05T00:20:46.923Z,21.10
2022-12-05T00:23:32.321Z,21.83
2022-12-05T00:26:17.703Z,22.58
2022-12-05T00:29:03.754Z,22.05
2022-12-05T00:31:49.063Z,22.48
2022-12-05T00:34:34.261Z,22.15
2022-12-05T00:37:19.821Z,22.77
2022-12-05T00:40:05.940Z,22.70
2022-12-05T00:42:52.575Z,22.33
2022-12-05T00:45:37.839Z,22.00
2022-12-05T00:48:22.872Z,23.35
2022-12-05T00:51:12.098Z,23.65
2022-12-05T00:54:07.187Z,22.55
2022-12-05T00:56:56.332Z,23.42
2022-12-05T00:59:41.757Z,23.42
2022-12-05T01:02:26.860Z,23.63
2022-12-05T01:05:13.171Z,22.38
2022-12-05T01:07:58.157Z,23.80
2022-12-05T01:10:53.107Z,22.17
2022-12-05T01:13:38.340Z,22.98
2022-12-05T01:16:24.858Z,23.55
2022-12-05T01:19:15.247Z,22.73
2022-12-05T01:22:00.835Z,23.48
2022-12-05T01:24:46.049Z,22.40
2022-12-05T01:27:31.503Z,23.40
2022-12-05T01:30:16.863Z,23.75
2022-12-05T01:33:02.226Z,23.40
2022-12-05T01:35:47.456Z,22.63
2022-12-05T01:38:32.814Z,23.80
2022-12-05T01:41:21.564Z,22.90
2022-12-05T01:44:12.795Z,23.35
2022-12-05T01:46:58.011Z,21.23
2022-12-05T01:49:44.042Z,22.73
2022-12-05T01:52:31.707Z,23.58
2022-12-05T01:55:18.905Z,23.20
2022-12-05T01:58:06.729Z,22.88
2022-12-05T02:00:52.133Z,24.67
2022-12-05T02:03:38.015Z,21.02
2022-12-05T02:06:25.641Z,22.25
2022-12-05T02:09:10.568Z,21.80
2022-12-05T02:12:00.735Z,22.05
2022-12-05T02:15:13.725Z,21.40
2022-12-05T02:18:09.379Z,21.33
2022-12-05T02:21:25.575Z,22.95
2022-12-05T02:24:17.024Z,21.30
2022-12-05T02:27:01.811Z,21.15
2022-12-05T02:29:58.104Z,22.65
2022-12-05T02:32:49.796Z,21.13
2022-12-05T02:35:43.025Z,20.58
2022-12-05T02:38:45.064Z,21.30
2022-12-05T02:41:33.285Z,21.70
2022-12-05T02:44:56.822Z,21.42
2022-12-05T02:47:50.114Z,19.50
2022-12-05T02:50:38.951Z,19.42
2022-12-05T02:53:27.063Z,20.65
2022-12-05T02:56:12.763Z,20.27
2022-12-05T02:58:57.802Z,19.90
2022-12-05T03:01:46.028Z,21.35
2022-12-05T03:04:31.972Z,21.67
2022-12-05T03:07:20.063Z,19.35
2022-12-05T03:10:08.297Z,19.98
2022-12-05T03:13:03.136Z,20.42
2022-12-05T03:15:53.380Z,20.42
2022-12-05T03:18:52.758Z,18.70
2022-12-05T03:21:46.398Z,18.90
2022-12-05T03:24:31.836Z,20.20
2022-12-05T03:27:35.384Z,20.57
2022-12-05T03:30:23.005Z,18.80
2022-12-05T03:33:15.332Z,20.27
2022-12-05T03:36:18.402Z,19.98
2022-12-05T03:39:19.686Z,19.17
2022-12-05T03:42:14.390Z,20.45
2022-12-05T03:45:16.056Z,19.88
2022-12-05T03:48:14.212Z,20.67
2022-12-05T03:51:01.115Z,19.58
2022-12-05T03:53:59.685Z,19.60
2022-12-05T03:57:12.253Z,20.35
2022-12-05T04:00:09.950Z,21.13
2022-12-05T04:03:02.678Z,19.23
2022-12-05T04:06:01.436Z,19.70
2022-12-05T04:08:58.361Z,20.05
2022-12-05T04:11:46.868Z,19.15
2022-12-05T04:14:42.038Z,18.70
2022-12-05T04:17:31.464Z,17.70
2022-12-05T04:21:10.914Z,18.88
2022-12-05T04:24:14.500Z,17.60
2022-12-05T04:27:27.734Z,16.67
2022-12-05T04:30:25.534Z,17.55
2022-12-05T04:33:32.447Z,17.02
2022-12-05T04:36:33.915Z,15.95
2022-12-05T04:39:41.081Z,16.52
2022-12-05T04:42:29.837Z,15.70
2022-12-05T04:45:19.374Z,15.65
2022-12-05T04:48:11.862Z,15.45
2022-12-05T04:50:57.364Z,16.65
2022-12-05T04:53:45.357Z,16.50
2022-12-05T04:56:33.695Z,14.98
2022-12-05T04:59:18.848Z,14.68
2022-12-05T05:02:08.225Z,14.65
2022-12-05T05:04:57.846Z,15.07
2022-12-05T05:07:45.809Z,14.27
2022-12-05T05:10:50.773Z,15.05
2022-12-05T05:13:35.722Z,13.90
2022-12-05T05:16:30.341Z,14.38
2022-12-05T05:19:15.627Z,14.35
2022-12-05T05:22:00.899Z,15.10
2022-12-05T05:24:46.266Z,14.30
2022-12-05T05:27:31.449Z,14.48
2022-12-05T05:30:17.642Z,13.35
2022-12-05T05:33:02.541Z,12.35
2022-12-05T05:35:47.844Z,12.93
2022-12-05T05:38:41.513Z,13.05
2022-12-05T05:41:30.965Z,12.68
2022-12-05T05:44:15.978Z,13.23
2022-12-05T05:47:01.265Z,12.57
2022-12-05T05:49:46.571Z,12.80
2022-12-05T05:52:38.194Z,11.60
2022-12-05T05:55:23.556Z,11.75
2022-12-05T05:58:09.476Z,12.25
2022-12-05T06:00:54.543Z,11.30
2022-12-05T06:03:40.753Z,11.27
2022-12-05T06:06:26.463Z,11.25
2022-12-05T06:09:11.377Z,11.32
2022-12-05T06:11:56.658Z,10.75
2022-12-05T06:14:41.828Z,11.07
2022-12-05T06:17:27.113Z,10.80
2022-12-05T06:20:12.606Z,10.32
2022-12-05T06:22:57.679Z,10.10
2022-12-05T06:25:48.517Z,9.88
2022-12-05T06:28:33.840Z,10.23
2022-12-05T06:31:22.887Z,10.48
2022-12-05T06:34:07.963Z,9.85
2022-12-05T06:36:53.132Z,10.30
2022-12-05T06:39:38.793Z,11.15
2022-12-05T06:42:23.879Z,10.55
2022-12-05T06:45:09.189Z,9.90
2022-12-05T06:47:54.299Z,10.60
2022-12-05T06:50:39.431Z,10.52
2022-12-05T06:53:24.628Z,10.63
2022-12-05T06:56:12.746Z,10.68
2022-12-05T06:58:58.071Z,10.77
2022-12-05T07:01:43.919Z,10.82
2022-12-05T07:04:29.512Z,10.73
2022-12-05T07:07:14.872Z,10.10
2022-12-05T07:10:00.563Z,10.30
2022-12-05T07:12:45.962Z,11.05
2022-12-05T07:15:31.291Z,10.55
2022-12-05T07:18:17.600Z,10.13
2022-12-05T07:21:13.897Z,9.90
2022-12-05T07:23:59.754Z,11.23
2022-12-05T07:26:44.825Z,11.25
2022-12-05T07:29:30.213Z,10.63
2022-12-05T07:32:15.752Z,10.55
2022-12-05T07:35:00.952Z,11.35
2022-12-05T07:37:46.144Z,11.32
2022-12-05T07:40:31.563Z,11.02
2022-12-05T07:43:16.483Z,11.10
2022-12-05T07:46:06.959Z,11.13
2022-12-05T07:48:52.850Z,11.30
2022-12-05T07:51:38.936Z,10.45
2022-12-05T07:54:24.169Z,8.48
2022-12-05T07:57:09.614Z,9.38
2022-12-05T07:59:54.462Z,9.93
2022-12-05T08:02:40.936Z,9.57
2022-12-05T08:05:26.556Z,9.15
2022-12-05T08:08:11.813Z,9.18
2022-12-05T08:11:02.420Z,7.85
2022-12-05T08:13:48.586Z,8.52
2022-12-05T08:16:34.113Z,9.13
2022-12-05T08:19:19.337Z,9.05
2022-12-05T08:22:04.449Z,8.52
2022-12-05T08:24:56.168Z,9.25
2022-12-05T08:27:41.483Z,8.80
2022-12-05T08:30:27.535Z,10.15
2022-12-05T08:33:12.938Z,9.77
2022-12-05T08:36:03.586Z,10.00
2022-12-05T08:38:48.807Z,9.52
2022-12-05T08:41:34.564Z,9.63
2022-12-05T08:44:19.906Z,10.05
2022-12-05T08:47:05.164Z,9.27
2022-12-05T08:49:50.371Z,9.35
2022-12-05T08:52:35.605Z,9.25
2022-12-05T08:55:20.856Z,9.70
2022-12-05T08:58:06.070Z,9.52
2022-12-05T09:00:51.338Z,8.85
2022-12-05T09:03:36.884Z,8.40
2022-12-05T09:06:24.562Z,9.02
2022-12-05T09:09:11.704Z,9.00
2022-12-05T09:11:57.871Z,9.63
2022-12-05T09:14:42.992Z,10.57
2022-12-05T09:17:27.782Z,10.57
2022-12-05T09:20:13.975Z,9.57
2022-12-05T09:22:58.907Z,10.68
2022-12-05T09:25:43.988Z,10.95
2022-12-05T09:28:30.006Z,10.63
2022-12-05T09:31:21.602Z,9.88
2022-12-05T09:34:07.155Z,11.13
2022-12-05T09:37:05.434Z,10.27
2022-12-05T09:39:51.070Z,10.82
2022-12-05T09:42:58.759Z,11.23
2022-12-05T09:45:54.031Z,11.13
2022-12-05T09:48:40.959Z,11.38
2022-12-05T09:51:26.798Z,11.32
2022-12-05T09:54:13.163Z,10.85
2022-12-05T09:56:58.857Z,11.07
2022-12-05T09:59:44.353Z,11.95
2022-12-05T10:02:44.993Z,11.88
2022-12-05T10:05:41.644Z,10.80
2022-12-05T10:08:38.020Z,10.75
2022-12-05T10:11:36.208Z,10.38
2022-12-05T10:14:43.059Z,10.60
2022-12-05T10:17:37.848Z,10.18
2022-12-05T10:20:30.815Z,10.82
2022-12-05T10:23:49.357Z,11.13
2022-12-05T10:26:45.767Z,11.73
2022-12-05T10:29:40.475Z,12.05
2022-12-05T10:32:36.365Z,12.45
2022-12-05T10:35:24.797Z,11.20
2022-12-05T10:38:25.824Z,12.70
2022-12-05T10:41:13.932Z,11.60
2022-12-05T10:43:59.771Z,11.30
2022-12-05T10:46:45.187Z,10.98
2022-12-05T10:49:32.687Z,11.13
2022-12-05T10:52:17.829Z,10.70
2022-12-05T10:55:06.610Z,11.82
2022-12-05T10:58:10.354Z,11.15
2022-12-05T11:01:06.995Z,11.40
2022-12-05T11:04:01.044Z,11.15
2022-12-05T11:06:53.434Z,10.07
2022-12-05T11:09:39.271Z,10.32
2022-12-05T11:12:28.376Z,10.80
2022-12-05T11:15:16.926Z,9.20
2022-12-05T11:18:32.543Z,10.25
2022-12-05T11:21:19.482Z,10.07
2022-12-05T11:24:31.577Z,10.40
2022-12-05T11:27:16.557Z,9.82
2022-12-05T11:30:22.365Z,9.98
2022-12-05T11:33:29.001Z,9.60
2022-12-05T11:36:23.370Z,10.15
2022-12-05T11:39:12.030Z,10.20
2022-12-05T11:42:20.003Z,9.50
2022-12-05T11:45:48.881Z,9.65
2022-12-05T11:48:58.900Z,10.13
2022-12-05T11:52:05.752Z,9.32
2022-12-05T11:55:14.786Z,9.15
2022-12-05T11:58:26.938Z,7.97
2022-12-05T12:01:18.484Z,8.43
2022-12-05T12:04:25.205Z,9.80
2022-12-05T12:07:16.141Z,9.52
2022-12-05T12:10:10.404Z,9.52
2022-12-05T12:13:19.917Z,9.10
2022-12-05T12:16:15.601Z,10.15
2022-12-05T12:19:19.752Z,9.43
2022-12-05T12:22:26.241Z,10.27
2022-12-05T12:25:20.458Z,9.55
2022-12-05T12:28:41.619Z,8.98
2022-12-05T12:32:00.756Z,9.80
2022-12-05T12:34:49.566Z,9.13
2022-12-05T12:37:51.318Z,9.60
2022-12-05T12:40:39.590Z,9.60
2022-12-05T12:43:53.297Z,9.75
2022-12-05T12:46:53.791Z,9.68
2022-12-05T12:49:53.913Z,9.70
2022-12-05T12:52:59.221Z,9.43
2022-12-05T12:56:01.387Z,10.10
2022-12-05T12:58:58.822Z,10.23
2022-12-05T13:01:48.257Z,10.00
2022-12-05T13:04:49.845Z,10.85
2022-12-05T13:07:45.741Z,10.45
2022-12-05T13:10:35.927Z,9.95
2022-12-05T13:13:27.502Z,9.77
2022-12-05T13:16:23.152Z,10.25
2022-12-05T13:19:23.312Z,10.00
2022-12-05T13:22:08.867Z,9.88
2022-12-05T13:24:54.881Z,8.70
2022-12-05T13:27:42.800Z,8.50
2022-12-05T13:30:28.686Z,8.23
2022-12-05T13:33:25.367Z,8.20
2022-12-05T13:36:35.323Z,7.90
2022-12-05T13:39:41.351Z,8.48
2022-12-05T13:42:31.908Z,6.82
2022-12-05T13:45:20.041Z,7.07
2022-12-05T13:48:22.390Z,7.30
2022-12-05T13:51:25.342Z,6.80
2022-12-05T13:54:19.569Z,5.55
2022-12-05T13:57:05.246Z,6.10
2022-12-05T14:00:05.856Z,5.32
2022-12-05T14:02:53.669Z,5.55
2022-12-05T14:05:47.743Z,5.32
2022-12-05T14:08:35.794Z,5.47
2022-12-05T14:11:21.225Z,5.40
2022-12-05T14:14:10.301Z,5.30
2022-12-05T14:16:55.556Z,5.15
2022-12-05T14:19:53.783Z,4.63
2022-12-05T14:23:12.715Z,5.00
2022-12-05T14:26:13.963Z,4.43
2022-12-05T14:29:17.178Z,4.70
2022-12-05T14:32:23.860Z,4.72
2022-12-05T14:35:30.109Z,5.13
2022-12-05T14:38:30.309Z,5.25
2022-12-05T14:41:27.352Z,5.07
2022-12-05T14:44:19.471Z,5.60
2022-12-05T14:47:06.983Z,6.75
2022-12-05T14:50:02.169Z,5.00
2022-12-05T14:53:33.386Z,5.40
2022-12-05T14:56:25.010Z,5.78
2022-12-05T14:59:30.057Z,5.55
2022-12-05T15:02:22.394Z,5.30
2022-12-05T15:05:27.834Z,4.85
2022-12-05T15:08:15.632Z,4.75
2022-12-05T15:11:01.206Z,4.45
2022-12-05T15:13:47.260Z,4.47
2022-12-05T15:16:33.553Z,5.03
2022-12-05T15:19:44.329Z,5.10
2022-12-05T15:22:35.121Z,5.65
2022-12-05T15:25:22.217Z,4.68
2022-12-05T15:28:19.586Z,5.65
2022-12-05T15:31:06.940Z,6.05
2022-12-05T15:33:57.639Z,4.22
2022-12-05T15:36:48.548Z,4.50
2022-12-05T15:39:53.954Z,4.65
2022-12-05T15:42:43.419Z,4.70
2022-12-05T15:45:30.451Z,4.07
2022-12-05T15:48:22.552Z,4.60
2022-12-05T15:51:08.398Z,4.60
2022-12-05T15:54:00.949Z,4.55
2022-12-05T15:56:57.934Z,3.90
2022-12-05T15:59:50.561Z,4.57
2022-12-05T16:02:48.448Z,3.92
2022-12-05T16:05:46.135Z,3.58
2022-12-05T16:08:40.697Z,4.28
2022-12-05T16:11:26.183Z,3.70
2022-12-05T16:14:18.255Z,4.20
2022-12-05T16:17:16.875Z,3.90
2022-12-05T16:20:22.991Z,4.40
2022-12-05T16:23:28.507Z,3.60
2022-12-05T16:26:13.705Z,4.57
2022-12-05T16:29:02.446Z,3.47
2022-12-05T16:31:54.917Z,3.53
2022-12-05T16:34:41.087Z,3.35
2022-12-05T16:37:28.306Z,3.70
2022-12-05T16:40:22.871Z,3.80
2022-12-05T16:43:20.523Z,3.88
2022-12-05T16:46:12.872Z,3.53
2022-12-05T16:49:21.272Z,3.72
2022-12-05T16:52:09.452Z,4.05
2022-12-05T16:54:54.927Z,3.65
2022-12-05T16:57:40.049Z,3.50
2022-12-05T17:00:25.050Z,3.80
2022-12-05T17:03:33.514Z,3.63
2022-12-05T17:06:18.999Z,3.65
2022-12-05T17:09:03.887Z,3.63
2022-12-05T17:11:52.813Z,3.45
2022-12-05T17:14:38.127Z,3.70
2022-12-05T17:17:23.246Z,3.92
2022-12-05T17:20:17.366Z,3.62
2022-12-05T17:23:02.352Z,3.05
2022-12-05T17:25:51.229Z,3.05
2022-12-05T17:28:36.412Z,3.35
2022-12-05T17:31:23.774Z,3.75
2022-12-05T17:34:17.707Z,3.08
2022-12-05T17:37:02.992Z,3.45
2022-12-05T17:39:48.292Z,29.33
2022-12-05T17:42:33.308Z,4.03
2022-12-05T17:45:18.462Z,5.20
2022-12-05T17:48:03.900Z,3.35
2022-12-05T17:50:49.724Z,4.50
2022-12-05T17:53:34.713Z,2.60
2022-12-05T17:56:20.202Z,2.60
2022-12-05T17:59:07.408Z,2.50
2022-12-05T18:01:52.792Z,3.63
2022-12-05T18:04:38.491Z,3.30
2022-12-05T18:07:23.428Z,2.35
2022-12-05T18:10:13.065Z,3.88
2022-12-05T18:15:46.119Z,2.33
2022-12-05T18:18:31.430Z,2.47
2022-12-05T18:21:16.687Z,2.70
2022-12-05T18:24:01.871Z,2.83
2022-12-05T18:26:47.599Z,2.75
2022-12-05T18:29:32.493Z,2.75
2022-12-05T18:32:19.356Z,2.65
2022-12-05T18:35:11.310Z,2.72
2022-12-05T18:37:58.298Z,2.50
2022-12-05T18:40:43.330Z,2.60
2022-12-05T18:43:28.491Z,7.60
2022-12-05T18:46:13.524Z,4.38
2022-12-05T18:49:03.059Z,3.47
2022-12-05T18:51:49.069Z,8.80
2022-12-05T18:54:34.134Z,26.67
2022-12-05T18:57:19.196Z,5.38
2022-12-05T19:00:05.973Z,3.22
2022-12-05T19:02:50.940Z,4.80
2022-12-05T19:05:36.442Z,4.80
2022-12-05T19:08:22.609Z,3.80
2022-12-05T19:11:08.044Z,4.40
2022-12-05T19:14:02.439Z,4.00
2022-12-05T19:16:58.053Z,8.43
2022-12-05T19:19:44.664Z,4.45
2022-12-05T19:22:30.533Z,6.03
2022-12-05T19:25:15.460Z,5.45
2022-12-05T19:28:00.644Z,5.65
2022-12-05T19:30:45.456Z,4.10
2022-12-05T19:33:36.062Z,3.70
2022-12-05T19:36:23.822Z,4.18
2022-12-05T19:39:14.314Z,6.20
2022-12-05T19:42:00.218Z,7.35
2022-12-05T19:44:45.787Z,3.90
2022-12-05T19:47:31.029Z,4.90
2022-12-05T19:50:16.205Z,3.95
2022-12-05T19:53:01.438Z,5.13
2022-12-05T19:55:46.681Z,4.03
2022-12-05T19:58:32.775Z,3.88
2022-12-05T20:01:30.486Z,3.42
2022-12-05T20:04:16.602Z,4.47
2022-12-05T20:07:02.154Z,3.50
2022-12-05T20:09:47.447Z,4.03
2022-12-05T20:12:32.776Z,3.92
2022-12-05T20:15:17.749Z,4.00
2022-12-05T20:18:03.089Z,3.85
2022-12-05T20:21:00.014Z,3.78
2022-12-05T20:23:46.153Z,4.25
2022-12-05T20:26:35.928Z,4.28
2022-12-05T20:32:06.326Z,5.15
2022-12-05T20:34:51.579Z,4.90
2022-12-05T20:37:36.997Z,5.53
2022-12-05T20:40:22.385Z,4.65
2022-12-05T20:43:08.085Z,4.03
2022-12-05T20:45:52.954Z,4.38
2022-12-05T20:48:38.241Z,4.25
2022-12-05T20:51:24.655Z,9.02
2022-12-05T20:54:12.627Z,4.80
2022-12-05T20:56:57.838Z,3.72
2022-12-05T20:59:42.932Z,3.78
2022-12-05T21:02:28.326Z,4.03
2022-12-05T21:05:13.901Z,4.07
2022-12-05T21:07:59.200Z,4.70
2022-12-05T21:10:46.059Z,3.85
2022-12-05T21:13:31.808Z,3.67
2022-12-05T21:16:20.908Z,4.38
2022-12-05T21:19:06.045Z,3.55
2022-12-05T21:21:53.758Z,3.45
2022-12-05T21:24:38.787Z,3.80
2022-12-05T21:27:23.953Z,3.83
2022-12-05T21:30:09.961Z,3.45
2022-12-05T21:32:55.782Z,3.90
2022-12-05T21:35:40.914Z,4.22
2022-12-05T21:38:26.186Z,3.63
2022-12-05T21:41:12.060Z,4.28
2022-12-05T21:43:57.406Z,3.83
2022-12-05T21:46:42.802Z,4.20
2022-12-05T21:49:27.988Z,3.63
2022-12-05T21:52:13.234Z,3.72
2022-12-05T21:54:58.288Z,4.30
2022-12-05T21:57:43.302Z,4.10
2022-12-05T22:00:28.314Z,3.63
2022-12-05T22:03:14.803Z,3.60
2022-12-05T22:06:05.643Z,3.50
2022-12-05T22:08:51.112Z,3.63
2022-12-05T22:11:36.501Z,3.90
2022-12-05T22:14:21.422Z,3.42
2022-12-05T22:17:06.364Z,3.58
2022-12-05T22:19:51.642Z,3.75
2022-12-05T22:22:36.621Z,3.30
2022-12-05T22:25:21.962Z,3.60
2022-12-05T22:28:06.916Z,4.38
2022-12-05T22:30:54.931Z,3.28
2022-12-05T22:33:40.624Z,3.60
2022-12-05T22:36:25.553Z,3.45
2022-12-05T22:39:12.844Z,3.75
2022-12-05T22:41:58.416Z,4.25
2022-12-05T22:44:44.822Z,3.63
2022-12-05T22:47:29.809Z,4.20
2022-12-05T22:50:15.015Z,3.22
2022-12-05T22:53:00.187Z,3.30
2022-12-05T22:55:45.140Z,2.92
2022-12-05T22:58:30.459Z,3.33
2022-12-05T23:01:24.269Z,3.15
2022-12-05T23:04:12.593Z,3.50
2022-12-05T23:06:57.882Z,3.25
2022-12-05T23:09:42.798Z,3.15
2022-12-05T23:12:27.872Z,3.20
2022-12-05T23:15:13.396Z,3.33
2022-12-05T23:17:58.571Z,3.38
2022-12-05T23:20:43.883Z,4.00
2022-12-05T23:23:28.768Z,3.28
2022-12-05T23:26:14.410Z,3.78
2022-12-05T23:28:59.748Z,3.85
2022-12-05T23:31:45.225Z,3.13
2022-12-05T23:34:30.637Z,3.45
2022-12-05T23:37:15.862Z,3.13
2022-12-05T23:40:01.487Z,3.38
2022-12-05T23:42:46.968Z,3.47
2022-12-05T23:45:31.969Z,3.38
2022-12-05T23:48:16.824Z,4.00
2022-12-05T23:51:05.497Z,4.05
2022-12-05T23:53:56.381Z,4.50
2022-12-05T23:56:42.083Z,4.40
2022-12-05T23:59:26.972Z,3.65
